Flight Track Log - Related Links

Times and Time Zones

All times are in EDT time to prevent confusion due to time zone crossing. See the DAL3678 flight status page for this flight to view local times or setup timezone preferences in your user account.


Time Position Orientation Groundspeed Altitude Reporting Facility
EDT Latitude Longitude Course Direction KTS MPH feet Rate Location/Type
Sun 04:05:08 PM 34.5264 -86.5808 107° East 274 315 7,900  Level Memphis Center
Sun 04:05:30 PM 34.5219 -86.5550 102° East 296 341 8,400 1,829 Climbing Atlanta Center
Sun 04:06:30 PM 34.4989 -86.4583 106° East 308 354 10,400 1,450 Climbing Atlanta Center
Sun 04:07:30 PM 34.4717 -86.3494 107° East 319 367 11,300 1,150 Climbing Atlanta Center
Sun 04:08:00 PM 34.4832 -86.2438 110° East  Level FlightAware Approximate
Sun 04:08:30 PM 34.4406 -86.2300 107° East 346 398 12,700  Level Atlanta Center
Sun 04:09:00 PM 34.4569 -86.1563 110° East  Level FlightAware Approximate
Sun 04:09:31 PM 34.4094 -86.1008 106° East 373 429 12,900  Level Atlanta Center
Sun 04:10:31 PM 34.3761 -85.9742 108° East 386 444 12,900  Level Atlanta Center
Sun 04:11:31 PM 34.3383 -85.8400 109° East 405 466 12,900 50 Level Atlanta Center
Sun 04:12:31 PM 34.2903 -85.6958 112° Southeast 412 474 13,000 49 Climbing Atlanta Center
Sun 04:13:33 PM 34.2522 -85.5642 109° East 417 480 13,000  Level Atlanta Center
Sun 04:14:43 PM 34.2042 -85.4028 110° East 417 480 13,000  Level Atlanta Center
Sun 04:15:42 PM 34.1639 -85.2714 110° East 412 474 13,000  Level Atlanta Center
Sun 04:16:43 PM 34.1275 -85.1456 109° East 405 466 13,000  Level Atlanta Center
Sun 04:17:43 PM 34.0928 -85.0397 112° Southeast 357 411 13,000 -504 Level Atlanta Center
Sun 04:18:42 PM 34.0350 -84.9561 130° Southeast 325 374 12,000 -1,350 Descending Atlanta Center
Sun 04:19:43 PM 33.9622 -84.9256 161° South 292 336 10,300 -1,488 Descending Atlanta Center
Sun 04:20:43 PM 33.8831 -84.9222 178° South 283 326 9,000 -807 Descending Atlanta Center
Sun 04:21:42 PM 33.8183 -84.9189 178° South 273 314 8,700 -958 Descending Atlanta Center
Sun 04:22:42 PM 33.7453 -84.8958 165° South 273 314 7,100 -1,300 Descending Atlanta Center
Sun 04:23:42 PM 33.6789 -84.8625 157° South 268 308 6,100 -550 Descending Atlanta Center
Sun 04:24:42 PM 33.6436 -84.7997 124° Southeast 236 272 6,000 -250 Descending Atlanta Center
Sun 04:25:42 PM 33.6317 -84.7275 101° East 217 250 5,600 -927 Descending Atlanta Center
Sun 04:26:45 PM 33.6333 -84.6333 89° East 229 264 4,100 -1,317 Descending Atlanta TRACON
Sun 04:27:45 PM 33.6333 -84.5667 90° East 214 246 2,900 -1,048 Descending Atlanta TRACON
Sun 04:28:51 PM 33.6333 -84.5000 90° East 173 199 1,900 -909 Descending Atlanta TRACON
Sun 04:30:00 PM 33.6367 -84.4279 North  Level Estimated

Login

Don't have an account? Register now (free) for customized features, flight alerts, and more!